Time;durP1;ratioP1;P1;durP2;ratioP2;P2;SDS_P1;SDS_P2;PMS_P1;PMS_P2;Temp;Humidity;BMP_temperature;BMP_pressure;BME280_temperature;BME280_humidity;BME280_pressure;Samples;Min_cycle;Max_cycle;Signal;HPM_P1;HPM_P2
2021/04/22 00:01:20;;;;;;;;;;;;;;;-142.75;58.89;79238.47;5112902;28;19919;-73
2021/04/22 00:03:45;;;;;;;;;;;;;;;-142.75;58.97;79236.50;5113107;28;20312;-73
2021/04/22 00:06:10;;;;;;;;;;;;;;;-142.75;58.55;79234.53;5113011;28;19915;-73
2021/04/22 00:08:35;;;;;;;;;;;;;;;-142.75;58.79;79244.38;5109191;28;19912;-73
2021/04/22 00:11:01;;;;;;;;;;;;;;;-142.75;58.54;79258.16;5109339;28;20002;-73
2021/04/22 00:13:28;;;;;;;;;;;;;;;-142.75;58.76;79258.16;5113371;28;19918;-73
2021/04/22 00:15:53;;;;;;;;;;;;;;;-142.75;58.88;79260.13;5113233;28;19956;-73
2021/04/22 00:18:18;;;;;;;;;;;;;;;-142.75;58.66;79250.28;5086954;28;19912;-73
2021/04/22 00:20:44;;;;;;;;;;;;;;;-142.75;58.51;79252.25;5074072;28;19912;-73
2021/04/22 00:23:10;;;;;;;;;;;;;;;-142.75;58.57;79252.25;5074719;28;19919;-74
2021/04/22 00:25:35;;;;;;;;;;;;;;;-142.75;58.94;79254.22;5074426;28;20371;-74
2021/04/22 00:28:01;;;;;;;;;;;;;;;-142.75;58.82;79277.88;5092358;28;19916;-73
2021/04/22 00:30:27;;;;;;;;;;;;;;;-142.75;58.81;79277.88;5078318;28;19922;-76
2021/04/22 00:32:52;;;;;;;;;;;;;;;-142.75;58.92;79283.78;5092897;28;19911;-73
2021/04/22 00:35:17;;;;;;;;;;;;;;;-142.75;59.19;79285.75;5072780;28;19918;-73
2021/04/22 00:37:43;;;;;;;;;;;;;;;-142.75;58.79;79287.72;5092268;28;19912;-73
2021/04/22 00:40:13;;;;;;;;;;;;;;;-142.75;59.00;79283.78;5092118;28;19912;-73
2021/04/22 00:42:38;;;;;;;;;;;;;;;-142.75;58.92;79291.66;5091784;28;19965;-73
2021/04/22 00:45:03;;;;;;;;;;;;;;;-142.75;59.11;79275.88;5074275;28;20381;-73
2021/04/22 00:47:29;;;;;;;;;;;;;;;-142.75;58.74;79273.91;5092292;28;19911;-74
2021/04/22 00:49:54;;;;;;;;;;;;;;;-142.75;58.70;79277.88;5074093;28;19916;-73
2021/04/22 00:52:19;;;;;;;;;;;;;;;-142.75;59.06;79287.72;5092317;28;19919;-74
2021/04/22 00:54:46;;;;;;;;;;;;;;;-142.75;58.79;79285.75;5073403;28;19947;-73
2021/04/22 00:57:11;;;;;;;;;;;;;;;-142.75;58.73;79283.78;5073632;28;20065;-73
2021/04/22 00:59:36;;;;;;;;;;;;;;;-142.75;58.60;79287.72;5091899;28;19947;-73
2021/04/22 01:02:04;;;;;;;;;;;;;;;-142.75;58.54;79279.84;5091626;28;20342;-73
2021/04/22 01:04:29;;;;;;;;;;;;;;;-142.75;58.62;79283.78;5107269;28;20002;-73
2021/04/22 01:06:54;;;;;;;;;;;;;;;-142.75;58.61;79279.84;5112582;28;20362;-71
2021/04/22 01:09:20;;;;;;;;;;;;;;;-142.75;58.52;79285.75;5112588;28;19956;-73
2021/04/22 01:11:45;;;;;;;;;;;;;;;-142.75;58.70;79285.75;5093882;28;19919;-74
2021/04/22 01:14:10;;;;;;;;;;;;;;;-142.75;58.57;79285.75;5112226;28;19993;-73
2021/04/22 01:16:36;;;;;;;;;;;;;;;-142.75;58.70;79297.56;5093946;28;19912;-74
2021/04/22 01:19:01;;;;;;;;;;;;;;;-142.75;59.05;79307.41;5104537;28;20331;-73
2021/04/22 01:21:27;;;;;;;;;;;;;;;-142.75;59.02;79309.38;5108178;28;19912;-73
2021/04/22 01:23:52;;;;;;;;;;;;;;;-142.75;59.01;79317.25;5095952;28;19911;-73
2021/04/22 01:26:19;;;;;;;;;;;;;;;-142.75;59.22;79319.22;5097879;28;19911;-73
2021/04/22 01:28:44;;;;;;;;;;;;;;;-142.75;59.27;79319.22;5097891;28;19912;-73
2021/04/22 01:31:09;;;;;;;;;;;;;;;-142.75;59.00;79319.22;5098065;28;19923;-72
2021/04/22 01:33:35;;;;;;;;;;;;;;;-142.75;59.29;79338.94;5116324;28;19912;-73
2021/04/22 01:36:00;;;;;;;;;;;;;;;-142.75;59.36;79342.88;5097903;28;19916;-73
2021/04/22 01:38:26;;;;;;;;;;;;;;;-142.75;59.46;79360.59;5097903;28;19937;-71
2021/04/22 01:40:52;;;;;;;;;;;;;;;-142.75;59.56;79366.50;5087033;28;19951;-75
2021/04/22 01:43:17;;;;;;;;;;;;;;;-142.75;59.64;79356.66;5096339;28;20005;-72
2021/04/22 01:45:43;;;;;;;;;;;;;;;-142.75;59.33;79346.81;5077471;28;19955;-73
2021/04/22 01:48:08;;;;;;;;;;;;;;;-142.75;59.41;79346.81;5077397;28;20476;-73
2021/04/22 01:50:34;;;;;;;;;;;;;;;-142.75;59.31;79352.72;5095060;28;19916;-73
2021/04/22 01:53:00;;;;;;;;;;;;;;;-142.75;59.17;79350.75;5095114;28;19911;-73
2021/04/22 01:55:31;;;;;;;;;;;;;;;-142.75;59.07;79346.81;5077221;28;19934;-71
2021/04/22 01:57:57;;;;;;;;;;;;;;;-142.75;59.06;79356.66;5115577;28;19973;-75
2021/04/22 02:00:33;;;;;;;;;;;;;;;-142.75;59.00;79358.63;5115913;28;19912;-72
2021/04/22 02:02:58;;;;;;;;;;;;;;;-142.75;59.24;79350.75;5115537;28;20006;-73
2021/04/22 02:05:23;;;;;;;;;;;;;;;-142.75;59.34;79386.19;5097387;28;19947;-74
2021/04/22 02:07:49;;;;;;;;;;;;;;;-142.75;59.11;79390.13;5115674;28;19920;-74
2021/04/22 02:10:14;;;;;;;;;;;;;;;-142.75;59.39;79400.00;5115189;28;19916;-74
2021/04/22 02:12:40;;;;;;;;;;;;;;;-142.75;59.59;79413.78;5096981;28;20006;-74
2021/04/22 02:15:07;;;;;;;;;;;;;;;-142.75;59.57;79417.72;5097595;28;19912;-73
2021/04/22 02:17:32;;;;;;;;;;;;;;;-142.75;59.80;79419.69;5115211;28;19999;-72
2021/04/22 02:19:58;;;;;;;;;;;;;;;-142.75;59.97;79435.44;5115037;28;19998;-73
2021/04/22 02:22:23;;;;;;;;;;;;;;;-142.75;59.84;79425.59;5115083;28;20010;-73
2021/04/22 02:24:48;;;;;;;;;;;;;;;-142.75;60.03;79421.66;5097100;28;19932;-73
2021/04/22 02:27:13;;;;;;;;;;;;;;;-142.75;59.60;79413.78;5114280;28;19917;-73
2021/04/22 02:29:38;;;;;;;;;;;;;;;-142.75;59.71;79407.88;5095136;28;19911;-73
2021/04/22 02:32:04;;;;;;;;;;;;;;;-142.75;59.72;79401.97;5088892;28;20307;-72
2021/04/22 02:34:29;;;;;;;;;;;;;;;-142.75;59.68;79392.13;5114418;28;19912;-73
2021/04/22 02:36:54;;;;;;;;;;;;;;;-142.75;59.45;79392.13;5097352;28;19964;-72
2021/04/22 02:39:20;;;;;;;;;;;;;;;-142.75;59.48;79388.16;5097269;28;19977;-73
2021/04/22 02:41:45;;;;;;;;;;;;;;;-142.75;59.32;79386.19;5114780;28;20002;-73
2021/04/22 02:44:10;;;;;;;;;;;;;;;-142.75;59.60;79392.13;5096908;28;20046;-73
2021/04/22 02:46:35;;;;;;;;;;;;;;;-142.75;59.99;79421.66;5097000;28;20560;-72
2021/04/22 02:49:00;;;;;;;;;;;;;;;-142.75;60.75;79449.25;5114808;28;19990;-73
2021/04/22 02:51:26;;;;;;;;;;;;;;;-142.75;61.16;79465.00;5114274;28;20499;-73
2021/04/22 02:53:51;;;;;;;;;;;;;;;-142.75;61.26;79461.06;5077545;28;19916;-73
2021/04/22 02:56:16;;;;;;;;;;;;;;;-142.75;61.27;79453.19;5076183;28;20405;-73
2021/04/22 02:58:41;;;;;;;;;;;;;;;-142.75;61.26;79449.25;5093963;28;19912;-75
2021/04/22 03:01:06;;;;;;;;;;;;;;;-142.75;61.10;79470.91;5097378;23;19967;-71
2021/04/22 03:03:32;;;;;;;;;;;;;;;-142.75;61.02;79476.81;5093491;28;19939;-73
2021/04/22 03:05:57;;;;;;;;;;;;;;;-142.75;60.69;79465.00;5113140;28;19912;-72
2021/04/22 03:08:22;;;;;;;;;;;;;;;-142.75;60.82;79478.78;5113693;28;19911;-73
2021/04/22 03:10:47;;;;;;;;;;;;;;;-142.75;60.78;79466.97;5113282;28;20384;-72
2021/04/22 03:13:13;;;;;;;;;;;;;;;-142.75;61.06;79461.06;5095451;28;20003;-72
2021/04/22 03:15:38;;;;;;;;;;;;;;;-142.75;61.00;79457.13;5118010;27;20381;-72
2021/04/22 03:18:03;;;;;;;;;;;;;;;-142.75;60.91;79453.19;5116447;27;20296;-72
2021/04/22 03:20:29;;;;;;;;;;;;;;;-142.75;61.09;79478.78;5113188;28;20015;-72
2021/04/22 03:22:54;;;;;;;;;;;;;;;-142.75;61.05;79476.81;5113377;28;19930;-72
2021/04/22 03:25:21;;;;;;;;;;;;;;;-142.75;61.30;79484.69;5115896;27;20293;-72
2021/04/22 03:27:46;;;;;;;;;;;;;;;-142.75;61.12;79488.63;5115417;27;19917;-72
2021/04/22 03:30:13;;;;;;;;;;;;;;;-142.75;60.82;79494.53;5133692;27;19915;-73
2021/04/22 03:32:39;;;;;;;;;;;;;;;-142.75;60.58;79486.66;5115207;27;19997;-72
2021/04/22 03:35:05;;;;;;;;;;;;;;;-142.75;60.31;79472.88;5133741;27;20003;-73
2021/04/22 03:37:30;;;;;;;;;;;;;;;-142.75;60.29;79472.88;5133572;27;20006;-72
2021/04/22 03:39:56;;;;;;;;;;;;;;;-142.75;60.25;79449.25;5115125;27;20322;-72
2021/04/22 03:42:21;;;;;;;;;;;;;;;-142.75;59.85;79435.44;5133383;27;19964;-72
2021/04/22 03:44:46;;;;;;;;;;;;;;;-142.75;59.60;79425.59;5115285;27;20006;-72
2021/04/22 03:47:12;;;;;;;;;;;;;;;-142.75;60.11;79457.13;5114827;27;19967;-72
2021/04/22 03:49:37;;;;;;;;;;;;;;;-142.75;60.21;79468.94;5133319;27;19918;-72
2021/04/22 03:52:04;;;;;;;;;;;;;;;-142.75;60.30;79465.00;5114696;27;20287;-72
2021/04/22 03:54:29;;;;;;;;;;;;;;;-142.75;59.91;79463.03;5133480;27;19911;-73
2021/04/22 03:56:54;;;;;;;;;;;;;;;-142.75;59.79;79455.16;5114964;27;20292;-73
2021/04/22 03:59:19;;;;;;;;;;;;;;;-142.75;59.72;79449.25;5125863;27;19911;-73
2021/04/22 04:01:44;;;;;;;;;;;;;;;-142.75;59.90;79459.09;5112389;28;19991;-73
2021/04/22 04:04:10;;;;;;;;;;;;;;;-142.75;59.49;79441.34;5112629;28;20279;-72
2021/04/22 04:06:35;;;;;;;;;;;;;;;-142.75;60.00;79439.38;5112566;27;20006;-73
2021/04/22 04:09:00;;;;;;;;;;;;;;;-142.75;59.60;79433.47;5112596;28;19915;-72
2021/04/22 04:11:25;;;;;;;;;;;;;;;-142.75;59.49;79417.72;5112094;28;19968;-72
2021/04/22 04:13:51;;;;;;;;;;;;;;;-142.75;59.19;79417.72;5112522;28;19916;-72
2021/04/22 04:16:16;;;;;;;;;;;;;;;-142.75;59.40;79455.16;5093976;28;19915;-72
2021/04/22 04:18:41;;;;;;;;;;;;;;;-142.75;59.69;79472.88;5112495;28;19912;-73
2021/04/22 04:21:07;;;;;;;;;;;;;;;-142.75;59.61;79480.75;5127574;27;19911;-72
2021/04/22 04:23:32;;;;;;;;;;;;;;;-142.75;59.75;79486.66;5132821;27;19919;-73
2021/04/22 04:25:57;;;;;;;;;;;;;;;-142.75;59.89;79496.50;5132918;27;19911;-72
2021/04/22 04:28:22;;;;;;;;;;;;;;;-142.75;59.82;79492.56;5114327;27;19911;-71
2021/04/22 04:30:47;;;;;;;;;;;;;;;-142.75;59.75;79492.56;5113971;27;19922;-73
2021/04/22 04:33:13;;;;;;;;;;;;;;;-142.75;59.70;79488.63;5114210;27;19911;-72
2021/04/22 04:35:38;;;;;;;;;;;;;;;-142.75;59.60;79474.84;5132560;27;19911;-72
2021/04/22 04:38:04;;;;;;;;;;;;;;;-142.75;59.27;79472.88;5132618;27;20011;-73
2021/04/22 04:40:29;;;;;;;;;;;;;;;-142.75;59.41;79480.75;5121687;27;20387;-71
2021/04/22 04:42:54;;;;;;;;;;;;;;;-142.75;59.31;79484.69;5093777;28;20365;-72
2021/04/22 04:45:19;;;;;;;;;;;;;;;-142.75;59.31;79480.75;5111945;28;19957;-73
2021/04/22 04:47:45;;;;;;;;;;;;;;;-142.75;59.13;79474.84;5111932;28;20412;-72
2021/04/22 04:50:13;;;;;;;;;;;;;;;-142.75;59.21;79474.84;5097884;27;19915;-73
2021/04/22 04:52:38;;;;;;;;;;;;;;;-142.75;59.33;79472.88;5113701;27;19967;-73
2021/04/22 04:55:04;;;;;;;;;;;;;;;-142.75;58.69;79468.94;5124857;27;19916;-73
2021/04/22 04:57:29;;;;;;;;;;;;;;;-142.75;58.79;79474.84;5125154;27;20291;-73
2021/04/22 04:59:55;;;;;;;;;;;;;;;-142.75;58.81;79480.75;5113657;27;19911;-72
2021/04/22 05:02:20;;;;;;;;;;;;;;;-142.75;59.57;79492.56;5113540;27;19911;-72
2021/04/22 05:04:45;;;;;;;;;;;;;;;-142.75;59.37;79482.72;5132240;27;19941;-72
2021/04/22 05:07:10;;;;;;;;;;;;;;;-142.75;59.51;79488.63;5113669;27;19970;-72
2021/04/22 05:09:36;;;;;;;;;;;;;;;-142.75;60.41;79494.53;5132138;27;20563;-71
2021/04/22 05:12:02;;;;;;;;;;;;;;;-142.75;60.97;79520.16;5102599;28;19915;-72
2021/04/22 05:14:27;;;;;;;;;;;;;;;-142.75;61.39;79526.06;5111569;28;20373;-72
2021/04/22 05:16:52;;;;;;;;;;;;;;;-142.75;61.88;79514.25;5094961;28;20288;-73
2021/04/22 05:19:17;;;;;;;;;;;;;;;-142.75;62.02;79492.56;5114099;28;20293;-72
2021/04/22 05:21:43;;;;;;;;;;;;;;;-142.75;61.81;79466.97;5092883;28;20026;-73
2021/04/22 05:24:08;;;;;;;;;;;;;;;-142.75;60.66;79429.53;5111530;28;19911;-72
2021/04/22 05:26:33;;;;;;;;;;;;;;;-142.75;59.53;79378.31;5111496;28;19919;-72
2021/04/22 05:28:58;;;;;;;;;;;;;;;-142.75;58.25;79333.00;5111440;28;19912;-72
2021/04/22 05:31:24;;;;;;;;;;;;;;;-142.75;56.73;79256.19;5111081;28;20019;-73
2021/04/22 05:33:50;;;;;;;;;;;;;;;-142.75;55.92;79179.38;5092023;28;19927;-72
2021/04/22 05:36:15;;;;;;;;;;;;;;;-142.75;53.94;79082.84;5110457;28;19912;-72
2021/04/22 05:38:40;;;;;;;;;;;;;;;-142.75;52.63;78998.16;5110384;28;19911;-72
2021/04/22 05:41:05;;;;;;;;;;;;;;;-142.75;51.18;78927.25;5110167;28;19912;-73
2021/04/22 05:43:31;;;;;;;;;;;;;;;-142.75;50.55;78878.00;5110525;28;19912;-72
2021/04/22 05:45:57;;;;;;;;;;;;;;;-142.75;49.57;78818.91;5092266;28;19916;-73
2021/04/22 05:48:22;;;;;;;;;;;;;;;-142.75;48.84;78771.66;5111161;28;20369;-72
2021/04/22 05:50:47;;;;;;;;;;;;;;;-142.75;48.12;78685.00;5110604;28;19915;-72
2021/04/22 05:53:12;;;;;;;;;;;;;;;-142.75;47.32;78633.78;5111237;28;19911;-73
2021/04/22 05:55:38;;;;;;;;;;;;;;;-142.75;46.32;78584.56;5111173;28;19911;-73
2021/04/22 05:58:03;;;;;;;;;;;;;;;-142.75;45.97;78556.97;5111279;28;19937;-72
2021/04/22 06:00:29;;;;;;;;;;;;;;;-142.75;45.35;78537.28;5092458;28;19957;-72
2021/04/22 06:02:56;;;;;;;;;;;;;;;-142.75;44.63;78482.13;5110938;28;20379;-73
2021/04/22 06:05:21;;;;;;;;;;;;;;;-142.75;44.32;78472.28;5109143;28;20265;-71
2021/04/22 06:07:47;;;;;;;;;;;;;;;-142.75;43.61;78444.72;5109172;28;19921;-71
2021/04/22 06:10:12;;;;;;;;;;;;;;;-142.75;43.38;78385.63;5093412;28;19915;-73
2021/04/22 06:12:37;;;;;;;;;;;;;;;-142.75;42.84;78314.75;5112656;28;19998;-72
2021/04/22 06:15:03;;;;;;;;;;;;;;;-142.75;41.79;78271.41;5112958;28;20003;-73
2021/04/22 06:17:28;;;;;;;;;;;;;;;-142.75;41.41;78257.63;5095248;28;19951;-73
2021/04/22 06:19:53;;;;;;;;;;;;;;;-142.75;41.16;78247.78;5095862;28;19912;-73
2021/04/22 06:22:18;;;;;;;;;;;;;;;-142.75;41.59;78299.00;5096123;28;19930;-74
2021/04/22 06:24:44;;;;;;;;;;;;;;;-142.75;40.86;78206.44;5114641;28;19912;-73
2021/04/22 06:27:09;;;;;;;;;;;;;;;-142.75;40.92;78157.19;5114604;28;19912;-74
2021/04/22 06:29:34;;;;;;;;;;;;;;;-142.75;39.58;78109.94;5114535;28;19915;-74
2021/04/22 06:32:00;;;;;;;;;;;;;;;-142.75;38.94;78078.44;5114110;28;19916;-74
2021/04/22 06:34:25;;;;;;;;;;;;;;;-142.75;38.73;78048.88;5114357;28;20401;-73
2021/04/22 06:36:50;;;;;;;;;;;;;;;-142.75;39.30;78074.50;5096150;28;19916;-73
2021/04/22 06:39:16;;;;;;;;;;;;;;;-142.75;38.17;78023.28;5114458;28;19920;-74
2021/04/22 06:41:41;;;;;;;;;;;;;;;-142.75;38.33;77968.16;5124448;27;19911;-73
2021/04/22 06:44:06;;;;;;;;;;;;;;;-142.75;38.43;78019.34;5134808;27;19915;-74
2021/04/22 06:46:33;;;;;;;;;;;;;;;-142.75;37.64;77938.63;5134651;27;19968;-73
2021/04/22 06:48:58;;;;;;;;;;;;;;;-142.75;37.45;77897.25;5134594;27;19916;-73
2021/04/22 06:51:23;;;;;;;;;;;;;;;-142.75;36.85;77899.22;5134197;27;19923;-74
2021/04/22 06:53:49;;;;;;;;;;;;;;;-142.75;36.48;77885.44;5130931;27;19916;-73
2021/04/22 06:56:14;;;;;;;;;;;;;;;-142.75;36.53;77838.19;5114025;28;19911;-73
2021/04/22 06:58:39;;;;;;;;;;;;;;;-142.75;35.70;77820.47;5116134;27;19920;-73
2021/04/22 07:01:04;;;;;;;;;;;;;;;-142.75;35.70;77855.91;5118699;27;20415;-72
2021/04/22 07:03:29;;;;;;;;;;;;;;;-142.75;35.04;77796.84;5105976;28;20002;-73
2021/04/22 07:05:55;;;;;;;;;;;;;;;-142.75;35.07;77781.09;5127887;27;19915;-72
2021/04/22 07:08:20;;;;;;;;;;;;;;;-142.75;35.00;77822.44;5115464;27;19911;-74
2021/04/22 07:10:45;;;;;;;;;;;;;;;-142.75;34.60;77855.91;5115419;27;19915;-73
2021/04/22 07:13:11;;;;;;;;;;;;;;;-142.75;35.09;77885.44;5134243;27;19964;-74
2021/04/22 07:15:36;;;;;;;;;;;;;;;-142.75;35.49;77999.66;5115639;27;20355;-73
2021/04/22 07:18:02;;;;;;;;;;;;;;;-142.75;36.00;78044.94;5134083;27;20387;-73
2021/04/22 07:20:27;;;;;;;;;;;;;;;-142.75;36.78;78098.13;5114679;28;19919;-73
2021/04/22 07:22:53;;;;;;;;;;;;;;;-142.75;36.74;78137.50;5115497;27;19911;-73
2021/04/22 07:25:19;;;;;;;;;;;;;;;-142.75;36.70;78078.44;5134040;27;20005;-71
2021/04/22 07:27:44;;;;;;;;;;;;;;;-142.75;36.77;78035.09;5133007;27;20460;-73
2021/04/22 07:30:10;;;;;;;;;;;;;;;-142.75;36.81;78001.63;5094879;28;20403;-73
2021/04/22 07:32:36;;;;;;;;;;;;;;;-142.75;35.84;77924.84;5117856;27;19957;-73
2021/04/22 07:35:01;;;;;;;;;;;;;;;-142.75;35.18;77794.88;5115321;27;19915;-75
2021/04/22 07:37:26;;;;;;;;;;;;;;;-142.75;32.09;77763.38;5133918;27;19915;-74
2021/04/22 07:39:52;;;;;;;;;;;;;;;-142.75;33.84;77808.66;5115212;27;20356;-73
2021/04/22 07:42:17;;;;;;;;;;;;;;;-142.75;34.39;77879.53;5114925;27;20336;-71
2021/04/22 07:44:42;;;;;;;;;;;;;;;-142.75;33.81;77964.22;5114851;27;19918;-73
2021/04/22 07:47:08;;;;;;;;;;;;;;;-142.75;36.16;78039.03;5112574;28;19912;-74
2021/04/22 07:49:34;;;;;;;;;;;;;;;-142.75;35.98;78060.72;5112634;28;19963;-73
2021/04/22 07:51:59;;;;;;;;;;;;;;;-142.75;37.22;78084.34;5093726;28;19972;-73
2021/04/22 07:54:24;;;;;;;;;;;;;;;-142.75;37.41;78127.66;5112639;28;19911;-72
2021/04/22 07:56:50;;;;;;;;;;;;;;;-142.75;38.19;78228.09;5112705;28;19980;-73
2021/04/22 07:59:15;;;;;;;;;;;;;;;-142.75;38.29;78259.59;5094530;28;19912;-72
2021/04/22 08:01:41;;;;;;;;;;;;;;;-142.75;38.32;78186.75;5112165;28;19920;-73
2021/04/22 08:04:06;;;;;;;;;;;;;;;-142.75;36.85;77958.31;5094316;28;20077;-73
2021/04/22 08:06:32;;;;;;;;;;;;;;;-142.75;34.99;77777.16;5112669;28;19949;-73
2021/04/22 08:08:57;;;;;;;;;;;;;;;-142.75;34.07;77743.69;5094293;28;19938;-73
2021/04/22 08:11:22;;;;;;;;;;;;;;;-142.75;34.34;77733.84;5112121;28;20429;-74
2021/04/22 08:13:47;;;;;;;;;;;;;;;-142.75;33.04;77645.22;5112470;28;19918;-73
2021/04/22 08:16:13;;;;;;;;;;;;;;;-142.75;33.19;77613.72;5112476;28;19912;-72
2021/04/22 08:18:38;;;;;;;;;;;;;;;-142.75;32.77;77544.81;5094052;28;20288;-73
2021/04/22 08:21:03;;;;;;;;;;;;;;;-142.75;32.17;77493.63;5111927;28;19956;-73
2021/04/22 08:23:34;;;;;;;;;;;;;;;-142.75;30.98;77393.19;5112375;28;19912;-73
2021/04/22 08:26:07;;;;;;;;;;;;;;;-142.75;30.42;77359.72;5112359;28;20006;-73
2021/04/22 08:28:34;;;;;;;;;;;;;;;-142.75;29.20;77381.38;5094008;28;20436;-73
2021/04/22 08:30:59;;;;;;;;;;;;;;;-142.75;30.72;77371.53;5111755;28;19915;-73
2021/04/22 08:33:25;;;;;;;;;;;;;;;-142.75;30.63;77359.72;5092976;28;20304;-73
2021/04/22 08:35:51;;;;;;;;;;;;;;;-142.75;30.07;77320.34;5112139;28;19912;-74
2021/04/22 08:38:17;;;;;;;;;;;;;;;-142.75;29.67;77363.66;5112066;28;20373;-73
2021/04/22 08:40:42;;;;;;;;;;;;;;;-142.75;30.63;77357.75;5111755;28;19918;-75
2021/04/22 08:43:08;;;;;;;;;;;;;;;-142.75;30.27;77357.75;5112092;28;20006;-75
2021/04/22 08:45:34;;;;;;;;;;;;;;;-142.75;29.90;77332.16;5112051;27;19958;-73
2021/04/22 08:48:00;;;;;;;;;;;;;;;-142.75;28.40;77251.44;5110572;28;20007;-72
2021/04/22 08:50:26;;;;;;;;;;;;;;;-142.75;28.45;77176.63;5091773;28;19915;-73
2021/04/22 08:52:53;;;;;;;;;;;;;;;-142.75;29.58;77154.97;5110474;28;19947;-71
2021/04/22 08:55:20;;;;;;;;;;;;;;;-142.75;29.50;77271.13;5110239;28;19965;-70
2021/04/22 08:57:45;;;;;;;;;;;;;;;-142.75;29.15;77316.41;5110470;28;19911;-73
2021/04/22 09:00:12;;;;;;;;;;;;;;;-142.75;29.64;77308.53;5110360;28;20312;-72
2021/04/22 09:02:37;;;;;;;;;;;;;;;-142.75;29.19;77263.25;5094069;28;19912;-72
2021/04/22 09:05:03;;;;;;;;;;;;;;;-142.75;29.62;77275.06;5111592;28;19964;-73
2021/04/22 09:07:28;;;;;;;;;;;;;;;-142.75;30.04;77196.31;5111209;28;19981;-72
2021/04/22 09:09:53;;;;;;;;;;;;;;;-142.75;28.79;77052.59;5093287;28;19915;-73
2021/04/22 09:12:20;;;;;;;;;;;;;;;-142.75;28.11;77153.00;5111355;28;20430;-73
2021/04/22 09:14:52;;;;;;;;;;;;;;;-142.75;27.59;77099.84;5116052;28;19912;-73
2021/04/22 09:17:18;;;;;;;;;;;;;;;-142.75;27.91;77072.28;5132030;28;20375;-73
2021/04/22 09:19:44;;;;;;;;;;;;;;;-142.75;28.17;77074.25;5113559;28;19964;-73
2021/04/22 09:22:09;;;;;;;;;;;;;;;-142.75;28.12;76977.78;5131454;28;19917;-70
2021/04/22 09:24:34;;;;;;;;;;;;;;;-142.75;28.37;77042.75;5113702;28;19994;-72
2021/04/22 09:27:03;;;;;;;;;;;;;;;-142.75;27.97;77145.13;5132009;28;19911;-73
2021/04/22 09:29:30;;;;;;;;;;;;;;;-142.75;25.92;77038.81;5113603;28;19912;-73
2021/04/22 09:32:27;;;;;;;;;;;;;;;-142.75;27.24;77038.81;5131405;28;20026;-72
2021/04/22 09:35:00;;;;;;;;;;;;;;;-142.75;27.88;77137.25;5111072;28;20362;-74
2021/04/22 09:37:42;;;;;;;;;;;;;;;-142.75;29.27;77174.66;5131856;28;20273;-73
2021/04/22 09:40:27;;;;;;;;;;;;;;;-142.75;28.31;76944.31;5131722;28;20372;-73
2021/04/22 09:42:53;;;;;;;;;;;;;;;-142.75;27.47;76916.75;5107744;28;19954;-73
2021/04/22 09:45:20;;;;;;;;;;;;;;;-142.75;27.55;76932.50;5134861;27;19962;-73
2021/04/22 09:47:45;;;;;;;;;;;;;;;-142.75;27.91;76993.53;5135542;27;19957;-73
2021/04/22 09:50:14;;;;;;;;;;;;;;;-142.75;26.56;76922.66;5117221;27;20303;-72
2021/04/22 09:52:41;;;;;;;;;;;;;;;-142.75;26.95;76820.28;5135517;27;20296;-73
2021/04/22 09:55:08;;;;;;;;;;;;;;;-142.75;26.95;76857.69;5135790;27;19911;-73
2021/04/22 09:57:35;;;;;;;;;;;;;;;-142.75;27.34;76798.66;5117010;27;20291;-73
2021/04/22 10:00:00;;;;;;;;;;;;;;;-142.75;25.60;76757.31;5135326;27;19918;-74
2021/04/22 10:02:26;;;;;;;;;;;;;;;-142.75;27.11;76973.84;5135149;27;19911;-72
2021/04/22 10:04:53;;;;;;;;;;;;;;;-142.75;28.50;77188.44;5134981;27;20385;-74
2021/04/22 10:07:22;;;;;;;;;;;;;;;-142.75;28.79;77225.84;5135524;27;19911;-72
2021/04/22 10:09:47;;;;;;;;;;;;;;;-142.75;28.58;77196.31;5116958;27;19926;-70
2021/04/22 10:12:20;;;;;;;;;;;;;;;-142.75;29.34;77286.88;5135100;27;19916;-73
2021/04/22 10:14:45;;;;;;;;;;;;;;;-142.75;29.17;77361.69;5129598;27;19919;-72
2021/04/22 10:17:17;;;;;;;;;;;;;;;-142.75;30.38;77290.81;5114947;28;19919;-71
2021/04/22 10:19:55;;;;;;;;;;;;;;;-142.75;29.00;77139.22;5096016;28;19981;-73
2021/04/22 10:22:30;;;;;;;;;;;;;;;-142.75;29.28;77219.94;5114473;28;20125;-72
2021/04/22 10:24:59;;;;;;;;;;;;;;;-142.75;28.24;77113.63;5114361;28;19934;-74
2021/04/22 10:27:26;;;;;;;;;;;;;;;-142.75;28.79;76983.69;5114607;28;20094;-73
2021/04/22 10:29:51;;;;;;;;;;;;;;;-142.75;27.46;76989.59;5113180;28;20500;-73
2021/04/22 10:32:16;;;;;;;;;;;;;;;-142.75;27.39;77080.16;5122764;27;19919;-72
2021/04/22 10:34:42;;;;;;;;;;;;;;;-142.75;28.14;77178.59;5116212;27;19912;-72
2021/04/22 10:37:08;;;;;;;;;;;;;;;-142.75;28.69;77269.16;5134957;27;20356;-73
2021/04/22 10:39:34;;;;;;;;;;;;;;;-142.75;29.55;77275.06;5134821;27;19994;-72
2021/04/22 10:41:59;;;;;;;;;;;;;;;-142.75;28.40;77127.41;5134577;27;19917;-72
2021/04/22 10:44:25;;;;;;;;;;;;;;;-142.75;27.98;77198.28;5134779;27;19911;-73
2021/04/22 10:46:51;;;;;;;;;;;;;;;-142.75;29.63;77310.50;5134843;27;19915;-72
2021/04/22 10:49:16;;;;;;;;;;;;;;;-142.75;29.53;77359.72;5116180;27;20441;-72
2021/04/22 10:51:41;;;;;;;;;;;;;;;-142.75;30.59;77334.13;5120525;27;19920;-72
2021/04/22 10:54:07;;;;;;;;;;;;;;;-142.75;29.40;77296.72;5095775;28;19916;-73
2021/04/22 10:56:32;;;;;;;;;;;;;;;-142.75;29.55;77180.56;5094747;28;19926;-70
2021/04/22 10:58:57;;;;;;;;;;;;;;;-142.75;28.53;77395.16;5113948;28;19918;-74
2021/04/22 11:01:36;;;;;;;;;;;;;;;-142.75;28.83;77247.50;5113429;28;19919;-70
2021/04/22 11:04:11;;;;;;;;;;;;;;;-142.75;28.95;77196.31;5113700;28;19916;-73
2021/04/22 11:06:40;;;;;;;;;;;;;;;-142.75;29.14;77121.50;5113970;28;19911;-73
2021/04/22 11:09:12;;;;;;;;;;;;;;;-142.75;27.98;77231.75;5094778;28;20474;-72
2021/04/22 11:11:38;;;;;;;;;;;;;;;-142.75;27.88;77251.44;5113065;28;19920;-71
2021/04/22 11:14:05;;;;;;;;;;;;;;;-142.75;27.51;77166.78;5113740;28;19918;-72
2021/04/22 11:16:32;;;;;;;;;;;;;;;-142.75;28.17;77129.38;5113737;28;19918;-71
2021/04/22 11:18:57;;;;;;;;;;;;;;;-142.75;28.30;77125.44;5095258;28;20007;-75
2021/04/22 11:21:24;;;;;;;;;;;;;;;-142.75;26.81;77027.00;5113106;27;19950;-72
2021/04/22 11:23:49;;;;;;;;;;;;;;;-142.75;28.14;77168.75;5113511;28;19999;-74
2021/04/22 11:26:26;;;;;;;;;;;;;;;-142.75;27.91;77121.50;5113416;28;19943;-72
2021/04/22 11:28:52;;;;;;;;;;;;;;;-142.75;28.13;77243.56;5112795;28;19919;-72
2021/04/22 11:31:19;;;;;;;;;;;;;;;-142.75;28.56;77216.00;5111291;28;19972;-71
2021/04/22 11:33:45;;;;;;;;;;;;;;;-142.75;29.14;77279.00;5094879;28;20369;-70
2021/04/22 11:36:18;;;;;;;;;;;;;;;-142.75;30.24;77410.91;5113204;28;19911;-71
2021/04/22 11:38:54;;;;;;;;;;;;;;;-142.75;29.56;77440.44;5094942;28;19957;-71
2021/04/22 11:41:21;;;;;;;;;;;;;;;-142.75;29.46;77347.91;5112944;28;20296;-71
2021/04/22 11:43:47;;;;;;;;;;;;;;;-142.75;29.98;77371.53;5113117;28;19912;-69
2021/04/22 11:46:12;;;;;;;;;;;;;;;-142.75;29.10;77334.13;5112971;27;19912;-70
2021/04/22 11:48:41;;;;;;;;;;;;;;;-142.75;30.01;77338.06;5113026;28;20281;-68
2021/04/22 11:51:07;;;;;;;;;;;;;;;-142.75;30.56;77470.00;5097910;27;19942;-71
2021/04/22 11:53:33;;;;;;;;;;;;;;;-142.75;32.82;77621.59;5114910;27;19918;-73
2021/04/22 11:56:00;;;;;;;;;;;;;;;-142.75;31.98;77657.03;5102750;28;19919;-70
2021/04/22 11:58:26;;;;;;;;;;;;;;;-142.75;31.84;77651.13;5094495;28;19911;-71
2021/04/22 12:00:52;;;;;;;;;;;;;;;-142.75;33.14;77702.31;5112255;28;20316;-71
2021/04/22 12:03:28;;;;;;;;;;;;;;;-142.75;33.69;77653.09;5112608;28;20402;-69
2021/04/22 12:05:55;;;;;;;;;;;;;;;-142.75;34.32;77672.78;5112552;28;19918;-72
2021/04/22 12:08:26;;;;;;;;;;;;;;;-142.75;34.91;77714.13;5112282;28;19912;-72
2021/04/22 12:10:51;;;;;;;;;;;;;;;-142.75;33.45;77729.88;5112039;28;20289;-71
2021/04/22 12:13:18;;;;;;;;;;;;;;;-142.75;35.10;77718.06;5112541;28;19916;-70
2021/04/22 12:15:45;;;;;;;;;;;;;;;-142.75;34.35;77731.88;5112385;27;19911;-71
2021/04/22 12:18:19;;;;;;;;;;;;;;;-142.75;33.69;77743.69;5112437;28;20002;-72
2021/04/22 12:20:44;;;;;;;;;;;;;;;-142.75;33.79;77739.75;5093698;28;19919;-70
2021/04/22 12:23:09;;;;;;;;;;;;;;;-142.75;35.39;77773.22;5094062;28;20022;-71